sensor_id;sensor_type;location;lat;lon;timestamp;temperature;humidity
37786;DHT22;23625;48.784;9.336;2023-04-15T00:01:21;4.00;99.90
37786;DHT22;23625;48.784;9.336;2023-04-15T00:03:50;4.00;99.90
37786;DHT22;23625;48.784;9.336;2023-04-15T00:06:22;4.10;99.90
37786;DHT22;23625;48.784;9.336;2023-04-15T00:08:48;4.00;99.90
37786;DHT22;23625;48.784;9.336;2023-04-15T00:11:15;4.00;99.90
37786;DHT22;23625;48.784;9.336;2023-04-15T00:13:41;4.00;99.90
37786;DHT22;23625;48.784;9.336;2023-04-15T00:16:08;4.10;99.90
37786;DHT22;23625;48.784;9.336;2023-04-15T00:18:34;4.00;99.90
37786;DHT22;23625;48.784;9.336;2023-04-15T00:21:00;4.00;99.90
37786;DHT22;23625;48.784;9.336;2023-04-15T00:23:27;3.90;99.90
37786;DHT22;23625;48.784;9.336;2023-04-15T00:25:52;3.80;99.90
37786;DHT22;23625;48.784;9.336;2023-04-15T00:28:18;3.80;99.90
37786;DHT22;23625;48.784;9.336;2023-04-15T00:30:44;3.70;99.90
37786;DHT22;23625;48.784;9.336;2023-04-15T00:33:10;3.70;99.90
37786;DHT22;23625;48.784;9.336;2023-04-15T00:35:36;3.80;99.90
37786;DHT22;23625;48.784;9.336;2023-04-15T00:38:02;3.80;99.90
37786;DHT22;23625;48.784;9.336;2023-04-15T00:40:29;3.70;99.90
37786;DHT22;23625;48.784;9.336;2023-04-15T00:42:55;3.70;99.90
37786;DHT22;23625;48.784;9.336;2023-04-15T00:45:20;3.60;99.90
37786;DHT22;23625;48.784;9.336;2023-04-15T00:47:46;3.60;99.90
37786;DHT22;23625;48.784;9.336;2023-04-15T00:50:12;3.60;99.90
37786;DHT22;23625;48.784;9.336;2023-04-15T00:52:39;3.60;99.90
37786;DHT22;23625;48.784;9.336;2023-04-15T00:55:05;3.60;99.90
37786;DHT22;23625;48.784;9.336;2023-04-15T00:57:31;3.60;99.90
37786;DHT22;23625;48.784;9.336;2023-04-15T00:59:57;3.60;99.90
37786;DHT22;23625;48.784;9.336;2023-04-15T01:02:24;3.60;99.90
37786;DHT22;23625;48.784;9.336;2023-04-15T01:04:50;3.60;99.90
37786;DHT22;23625;48.784;9.336;2023-04-15T01:07:15;3.50;99.90
37786;DHT22;23625;48.784;9.336;2023-04-15T01:09:42;3.50;99.90
37786;DHT22;23625;48.784;9.336;2023-04-15T01:12:09;3.50;99.90
37786;DHT22;23625;48.784;9.336;2023-04-15T01:14:36;3.50;99.90
37786;DHT22;23625;48.784;9.336;2023-04-15T01:17:01;3.40;99.90
37786;DHT22;23625;48.784;9.336;2023-04-15T01:19:27;3.40;99.90
37786;DHT22;23625;48.784;9.336;2023-04-15T01:21:53;3.40;99.90
37786;DHT22;23625;48.784;9.336;2023-04-15T01:24:19;3.40;99.90
37786;DHT22;23625;48.784;9.336;2023-04-15T01:26:45;3.30;99.90
37786;DHT22;23625;48.784;9.336;2023-04-15T01:29:11;3.30;99.90
37786;DHT22;23625;48.784;9.336;2023-04-15T01:31:37;3.30;99.90
37786;DHT22;23625;48.784;9.336;2023-04-15T01:34:03;3.30;99.90
37786;DHT22;23625;48.784;9.336;2023-04-15T01:36:29;3.30;99.90
37786;DHT22;23625;48.784;9.336;2023-04-15T01:38:55;3.30;99.90
37786;DHT22;23625;48.784;9.336;2023-04-15T01:41:25;3.30;99.90
37786;DHT22;23625;48.784;9.336;2023-04-15T01:43:51;3.40;99.90
37786;DHT22;23625;48.784;9.336;2023-04-15T01:46:17;3.30;99.90
37786;DHT22;23625;48.784;9.336;2023-04-15T01:48:42;3.20;99.90
37786;DHT22;23625;48.784;9.336;2023-04-15T01:51:08;3.20;99.90
37786;DHT22;23625;48.784;9.336;2023-04-15T01:53:33;3.20;99.90
37786;DHT22;23625;48.784;9.336;2023-04-15T01:55:59;3.10;99.90
37786;DHT22;23625;48.784;9.336;2023-04-15T01:58:25;3.10;99.90
37786;DHT22;23625;48.784;9.336;2023-04-15T02:00:51;3.10;99.90
37786;DHT22;23625;48.784;9.336;2023-04-15T02:03:17;3.10;99.90
37786;DHT22;23625;48.784;9.336;2023-04-15T02:05:42;3.10;99.90
37786;DHT22;23625;48.784;9.336;2023-04-15T02:08:08;3.10;99.90
37786;DHT22;23625;48.784;9.336;2023-04-15T02:10:34;3.10;99.90
37786;DHT22;23625;48.784;9.336;2023-04-15T02:13:00;3.10;99.90
37786;DHT22;23625;48.784;9.336;2023-04-15T02:15:26;3.10;99.90
37786;DHT22;23625;48.784;9.336;2023-04-15T02:17:52;3.10;99.90
37786;DHT22;23625;48.784;9.336;2023-04-15T02:20:20;3.10;99.90
37786;DHT22;23625;48.784;9.336;2023-04-15T02:22:46;3.00;99.90
37786;DHT22;23625;48.784;9.336;2023-04-15T02:25:13;3.00;99.90
37786;DHT22;23625;48.784;9.336;2023-04-15T02:27:39;3.00;99.90
37786;DHT22;23625;48.784;9.336;2023-04-15T02:30:05;2.90;99.90
37786;DHT22;23625;48.784;9.336;2023-04-15T02:32:31;2.90;99.90
37786;DHT22;23625;48.784;9.336;2023-04-15T02:35:01;2.90;99.90
37786;DHT22;23625;48.784;9.336;2023-04-15T02:37:28;2.90;99.90
37786;DHT22;23625;48.784;9.336;2023-04-15T02:39:54;2.90;99.90
37786;DHT22;23625;48.784;9.336;2023-04-15T02:42:20;2.90;99.90
37786;DHT22;23625;48.784;9.336;2023-04-15T02:44:46;2.90;99.90
37786;DHT22;23625;48.784;9.336;2023-04-15T02:47:12;2.90;99.90
37786;DHT22;23625;48.784;9.336;2023-04-15T02:49:38;2.80;99.90
37786;DHT22;23625;48.784;9.336;2023-04-15T02:52:04;2.80;99.90
37786;DHT22;23625;48.784;9.336;2023-04-15T02:54:30;2.80;99.90
37786;DHT22;23625;48.784;9.336;2023-04-15T02:56:58;2.70;99.90
37786;DHT22;23625;48.784;9.336;2023-04-15T02:59:24;2.70;99.90
37786;DHT22;23625;48.784;9.336;2023-04-15T03:01:49;2.70;99.90
37786;DHT22;23625;48.784;9.336;2023-04-15T03:04:15;2.70;99.90
37786;DHT22;23625;48.784;9.336;2023-04-15T03:06:41;2.70;99.90
37786;DHT22;23625;48.784;9.336;2023-04-15T03:09:07;3.30;99.90
37786;DHT22;23625;48.784;9.336;2023-04-15T03:11:32;2.60;99.90
37786;DHT22;23625;48.784;9.336;2023-04-15T03:13:58;2.60;99.90
37786;DHT22;23625;48.784;9.336;2023-04-15T03:16:24;2.60;99.90
37786;DHT22;23625;48.784;9.336;2023-04-15T03:18:50;2.60;99.90
37786;DHT22;23625;48.784;9.336;2023-04-15T03:21:16;2.60;99.90
37786;DHT22;23625;48.784;9.336;2023-04-15T03:23:44;2.60;99.90
37786;DHT22;23625;48.784;9.336;2023-04-15T03:26:26;2.60;99.90
37786;DHT22;23625;48.784;9.336;2023-04-15T03:28:52;2.60;99.90
37786;DHT22;23625;48.784;9.336;2023-04-15T03:31:17;2.60;99.90
37786;DHT22;23625;48.784;9.336;2023-04-15T03:33:43;2.60;99.90
37786;DHT22;23625;48.784;9.336;2023-04-15T03:36:08;2.60;99.90
37786;DHT22;23625;48.784;9.336;2023-04-15T03:38:34;2.50;99.90
37786;DHT22;23625;48.784;9.336;2023-04-15T03:40:59;2.50;99.90
37786;DHT22;23625;48.784;9.336;2023-04-15T03:43:25;2.50;99.90
37786;DHT22;23625;48.784;9.336;2023-04-15T03:45:51;2.60;99.90
37786;DHT22;23625;48.784;9.336;2023-04-15T03:48:16;2.50;99.90
37786;DHT22;23625;48.784;9.336;2023-04-15T03:50:42;2.50;99.90
37786;DHT22;23625;48.784;9.336;2023-04-15T03:53:07;2.50;99.90
37786;DHT22;23625;48.784;9.336;2023-04-15T03:55:33;2.50;99.90
37786;DHT22;23625;48.784;9.336;2023-04-15T03:57:58;2.60;99.90
37786;DHT22;23625;48.784;9.336;2023-04-15T04:00:24;2.60;99.90
37786;DHT22;23625;48.784;9.336;2023-04-15T04:02:49;2.60;99.90
37786;DHT22;23625;48.784;9.336;2023-04-15T04:05:15;2.70;99.90
37786;DHT22;23625;48.784;9.336;2023-04-15T04:07:41;2.70;99.90
37786;DHT22;23625;48.784;9.336;2023-04-15T04:10:07;2.70;99.90
37786;DHT22;23625;48.784;9.336;2023-04-15T04:12:32;2.70;99.90
37786;DHT22;23625;48.784;9.336;2023-04-15T04:14:58;2.70;99.90
37786;DHT22;23625;48.784;9.336;2023-04-15T04:17:24;2.60;99.90
37786;DHT22;23625;48.784;9.336;2023-04-15T04:19:49;2.60;99.90
37786;DHT22;23625;48.784;9.336;2023-04-15T04:22:15;2.60;99.90
37786;DHT22;23625;48.784;9.336;2023-04-15T04:24:41;2.60;99.90
37786;DHT22;23625;48.784;9.336;2023-04-15T04:27:06;2.70;99.90
37786;DHT22;23625;48.784;9.336;2023-04-15T04:29:32;2.70;99.90
37786;DHT22;23625;48.784;9.336;2023-04-15T04:31:57;2.70;99.90
37786;DHT22;23625;48.784;9.336;2023-04-15T04:34:23;2.60;99.90
37786;DHT22;23625;48.784;9.336;2023-04-15T04:36:48;2.60;99.90
37786;DHT22;23625;48.784;9.336;2023-04-15T04:39:14;2.60;99.90
37786;DHT22;23625;48.784;9.336;2023-04-15T04:41:40;2.60;99.90
37786;DHT22;23625;48.784;9.336;2023-04-15T04:44:06;2.70;99.90
37786;DHT22;23625;48.784;9.336;2023-04-15T04:46:31;2.70;99.90
37786;DHT22;23625;48.784;9.336;2023-04-15T04:48:57;2.60;99.90
37786;DHT22;23625;48.784;9.336;2023-04-15T04:51:23;2.70;99.90
37786;DHT22;23625;48.784;9.336;2023-04-15T04:53:48;2.60;99.90
37786;DHT22;23625;48.784;9.336;2023-04-15T04:56:14;2.60;99.90
37786;DHT22;23625;48.784;9.336;2023-04-15T04:58:39;2.60;99.90
37786;DHT22;23625;48.784;9.336;2023-04-15T05:01:05;2.50;99.90
37786;DHT22;23625;48.784;9.336;2023-04-15T05:03:31;2.50;99.90
37786;DHT22;23625;48.784;9.336;2023-04-15T05:05:57;2.50;99.90
37786;DHT22;23625;48.784;9.336;2023-04-15T05:08:22;2.50;99.90
37786;DHT22;23625;48.784;9.336;2023-04-15T05:10:48;2.40;99.90
37786;DHT22;23625;48.784;9.336;2023-04-15T05:13:13;2.50;99.90
37786;DHT22;23625;48.784;9.336;2023-04-15T05:15:39;2.40;99.90
37786;DHT22;23625;48.784;9.336;2023-04-15T05:18:05;2.50;99.90
37786;DHT22;23625;48.784;9.336;2023-04-15T05:20:31;2.50;99.90
37786;DHT22;23625;48.784;9.336;2023-04-15T05:22:57;2.50;99.90
37786;DHT22;23625;48.784;9.336;2023-04-15T05:25:22;2.60;99.90
37786;DHT22;23625;48.784;9.336;2023-04-15T05:27:48;2.60;99.90
37786;DHT22;23625;48.784;9.336;2023-04-15T05:30:13;2.60;99.90
37786;DHT22;23625;48.784;9.336;2023-04-15T05:32:40;2.70;99.90
37786;DHT22;23625;48.784;9.336;2023-04-15T05:35:06;2.70;99.90
37786;DHT22;23625;48.784;9.336;2023-04-15T05:37:32;2.70;99.90
37786;DHT22;23625;48.784;9.336;2023-04-15T05:39:57;2.80;99.90
37786;DHT22;23625;48.784;9.336;2023-04-15T05:42:23;2.90;99.90
37786;DHT22;23625;48.784;9.336;2023-04-15T05:44:48;2.90;99.90
37786;DHT22;23625;48.784;9.336;2023-04-15T05:47:14;3.00;99.90
37786;DHT22;23625;48.784;9.336;2023-04-15T05:49:40;3.10;99.90
37786;DHT22;23625;48.784;9.336;2023-04-15T05:52:05;3.10;99.90
37786;DHT22;23625;48.784;9.336;2023-04-15T05:54:31;3.10;99.90
37786;DHT22;23625;48.784;9.336;2023-04-15T05:56:57;3.30;99.90
37786;DHT22;23625;48.784;9.336;2023-04-15T05:59:22;3.30;99.90
37786;DHT22;23625;48.784;9.336;2023-04-15T06:01:48;3.40;99.90
37786;DHT22;23625;48.784;9.336;2023-04-15T06:04:14;3.40;99.90
37786;DHT22;23625;48.784;9.336;2023-04-15T06:06:40;3.50;99.90
37786;DHT22;23625;48.784;9.336;2023-04-15T06:09:06;3.50;99.90
37786;DHT22;23625;48.784;9.336;2023-04-15T06:11:31;3.60;99.90
37786;DHT22;23625;48.784;9.336;2023-04-15T06:13:57;3.60;99.90
37786;DHT22;23625;48.784;9.336;2023-04-15T06:16:23;3.70;99.90
37786;DHT22;23625;48.784;9.336;2023-04-15T06:18:48;3.80;99.90
37786;DHT22;23625;48.784;9.336;2023-04-15T06:21:14;3.90;99.90
37786;DHT22;23625;48.784;9.336;2023-04-15T06:23:40;4.00;99.90
37786;DHT22;23625;48.784;9.336;2023-04-15T06:26:07;4.10;99.90
37786;DHT22;23625;48.784;9.336;2023-04-15T06:28:32;4.20;99.90
37786;DHT22;23625;48.784;9.336;2023-04-15T06:30:58;4.30;99.90
37786;DHT22;23625;48.784;9.336;2023-04-15T06:33:25;4.40;99.90
37786;DHT22;23625;48.784;9.336;2023-04-15T06:35:51;4.50;99.90
37786;DHT22;23625;48.784;9.336;2023-04-15T06:38:16;4.60;99.90
37786;DHT22;23625;48.784;9.336;2023-04-15T06:40:42;4.80;99.90
37786;DHT22;23625;48.784;9.336;2023-04-15T06:43:08;4.90;99.90
37786;DHT22;23625;48.784;9.336;2023-04-15T06:45:33;5.00;99.90
37786;DHT22;23625;48.784;9.336;2023-04-15T06:47:59;5.00;99.90
37786;DHT22;23625;48.784;9.336;2023-04-15T06:50:25;5.20;99.90
37786;DHT22;23625;48.784;9.336;2023-04-15T06:52:52;5.20;99.90
37786;DHT22;23625;48.784;9.336;2023-04-15T06:55:18;5.30;99.90
37786;DHT22;23625;48.784;9.336;2023-04-15T06:57:44;5.30;99.90
37786;DHT22;23625;48.784;9.336;2023-04-15T07:00:12;5.30;99.90
37786;DHT22;23625;48.784;9.336;2023-04-15T07:02:38;5.40;99.90
37786;DHT22;23625;48.784;9.336;2023-04-15T07:05:05;5.50;99.90
37786;DHT22;23625;48.784;9.336;2023-04-15T07:07:31;5.50;99.90
37786;DHT22;23625;48.784;9.336;2023-04-15T07:09:56;5.50;99.90
37786;DHT22;23625;48.784;9.336;2023-04-15T07:12:22;5.70;99.90
37786;DHT22;23625;48.784;9.336;2023-04-15T07:14:47;5.70;99.90
37786;DHT22;23625;48.784;9.336;2023-04-15T07:17:14;5.70;99.90
37786;DHT22;23625;48.784;9.336;2023-04-15T07:19:39;5.80;99.90
37786;DHT22;23625;48.784;9.336;2023-04-15T07:22:05;5.90;99.90
37786;DHT22;23625;48.784;9.336;2023-04-15T07:24:30;6.00;99.90
37786;DHT22;23625;48.784;9.336;2023-04-15T07:26:56;6.10;99.90
37786;DHT22;23625;48.784;9.336;2023-04-15T07:29:22;6.20;99.90
37786;DHT22;23625;48.784;9.336;2023-04-15T07:31:48;6.30;99.90
37786;DHT22;23625;48.784;9.336;2023-04-15T07:34:14;6.50;99.90
37786;DHT22;23625;48.784;9.336;2023-04-15T07:36:39;6.80;99.90
37786;DHT22;23625;48.784;9.336;2023-04-15T07:39:05;6.90;99.90
37786;DHT22;23625;48.784;9.336;2023-04-15T07:41:31;7.00;99.90
37786;DHT22;23625;48.784;9.336;2023-04-15T07:43:56;7.20;99.90
37786;DHT22;23625;48.784;9.336;2023-04-15T07:46:22;7.40;99.90
37786;DHT22;23625;48.784;9.336;2023-04-15T07:48:49;7.50;99.90
37786;DHT22;23625;48.784;9.336;2023-04-15T07:51:15;7.70;99.90
37786;DHT22;23625;48.784;9.336;2023-04-15T07:53:42;7.80;99.90
37786;DHT22;23625;48.784;9.336;2023-04-15T07:56:08;8.00;99.90
37786;DHT22;23625;48.784;9.336;2023-04-15T07:58:34;8.20;99.90
37786;DHT22;23625;48.784;9.336;2023-04-15T08:01:00;8.50;99.90
37786;DHT22;23625;48.784;9.336;2023-04-15T08:03:25;8.70;99.90
37786;DHT22;23625;48.784;9.336;2023-04-15T08:05:51;8.80;99.90
37786;DHT22;23625;48.784;9.336;2023-04-15T08:08:17;9.00;99.90
37786;DHT22;23625;48.784;9.336;2023-04-15T08:10:42;9.20;99.90
37786;DHT22;23625;48.784;9.336;2023-04-15T08:13:08;9.40;99.90
37786;DHT22;23625;48.784;9.336;2023-04-15T08:15:34;9.60;99.90
37786;DHT22;23625;48.784;9.336;2023-04-15T08:17:59;9.80;99.90
37786;DHT22;23625;48.784;9.336;2023-04-15T08:20:28;9.90;99.90
37786;DHT22;23625;48.784;9.336;2023-04-15T08:22:54;10.20;99.90
37786;DHT22;23625;48.784;9.336;2023-04-15T08:25:20;10.30;99.90
37786;DHT22;23625;48.784;9.336;2023-04-15T08:27:46;10.50;98.90
37786;DHT22;23625;48.784;9.336;2023-04-15T08:30:12;10.70;98.60
37786;DHT22;23625;48.784;9.336;2023-04-15T08:32:38;10.90;98.10
37786;DHT22;23625;48.784;9.336;2023-04-15T08:35:04;11.10;96.20
37786;DHT22;23625;48.784;9.336;2023-04-15T08:37:30;11.40;95.50
37786;DHT22;23625;48.784;9.336;2023-04-15T08:39:56;11.60;92.00
37786;DHT22;23625;48.784;9.336;2023-04-15T08:42:31;11.90;91.90
37786;DHT22;23625;48.784;9.336;2023-04-15T08:44:59;12.30;89.10
37786;DHT22;23625;48.784;9.336;2023-04-15T08:47:29;12.50;87.00
37786;DHT22;23625;48.784;9.336;2023-04-15T08:49:56;12.70;84.20
37786;DHT22;23625;48.784;9.336;2023-04-15T08:52:24;13.10;82.20
37786;DHT22;23625;48.784;9.336;2023-04-15T08:54:52;13.40;79.10
37786;DHT22;23625;48.784;9.336;2023-04-15T08:57:22;13.40;75.20
37786;DHT22;23625;48.784;9.336;2023-04-15T08:59:48;13.60;74.80
37786;DHT22;23625;48.784;9.336;2023-04-15T09:02:14;13.80;71.50
37786;DHT22;23625;48.784;9.336;2023-04-15T09:04:40;13.80;69.60
37786;DHT22;23625;48.784;9.336;2023-04-15T09:07:06;13.70;66.60
37786;DHT22;23625;48.784;9.336;2023-04-15T09:09:32;13.40;67.70
37786;DHT22;23625;48.784;9.336;2023-04-15T09:11:59;13.30;69.40
37786;DHT22;23625;48.784;9.336;2023-04-15T09:14:27;13.50;69.00
37786;DHT22;23625;48.784;9.336;2023-04-15T09:19:23;13.80;67.20
37786;DHT22;23625;48.784;9.336;2023-04-15T09:21:50;14.10;66.20
37786;DHT22;23625;48.784;9.336;2023-04-15T09:24:16;14.10;66.30
37786;DHT22;23625;48.784;9.336;2023-04-15T09:26:42;14.10;65.40
37786;DHT22;23625;48.784;9.336;2023-04-15T09:29:11;14.00;65.90
37786;DHT22;23625;48.784;9.336;2023-04-15T09:31:40;14.20;66.60
37786;DHT22;23625;48.784;9.336;2023-04-15T09:34:06;14.30;66.90
37786;DHT22;23625;48.784;9.336;2023-04-15T09:36:51;14.20;63.60
37786;DHT22;23625;48.784;9.336;2023-04-15T09:39:17;14.00;65.00
37786;DHT22;23625;48.784;9.336;2023-04-15T09:41:42;14.10;65.70
37786;DHT22;23625;48.784;9.336;2023-04-15T09:44:25;14.30;65.90
37786;DHT22;23625;48.784;9.336;2023-04-15T09:46:51;14.50;63.50
37786;DHT22;23625;48.784;9.336;2023-04-15T09:49:17;14.30;62.70
37786;DHT22;23625;48.784;9.336;2023-04-15T09:51:42;14.00;64.20
37786;DHT22;23625;48.784;9.336;2023-04-15T09:54:09;13.90;63.90
37786;DHT22;23625;48.784;9.336;2023-04-15T09:56:38;14.00;65.40
37786;DHT22;23625;48.784;9.336;2023-04-15T09:59:09;14.20;65.80
37786;DHT22;23625;48.784;9.336;2023-04-15T10:01:35;14.40;65.30
37786;DHT22;23625;48.784;9.336;2023-04-15T10:04:04;14.40;64.00
37786;DHT22;23625;48.784;9.336;2023-04-15T10:06:31;14.30;63.60
37786;DHT22;23625;48.784;9.336;2023-04-15T10:09:00;14.20;64.80
37786;DHT22;23625;48.784;9.336;2023-04-15T10:11:29;14.30;63.60
37786;DHT22;23625;48.784;9.336;2023-04-15T10:13:56;14.20;63.10
37786;DHT22;23625;48.784;9.336;2023-04-15T10:16:26;14.30;63.70
37786;DHT22;23625;48.784;9.336;2023-04-15T10:18:56;14.40;62.30
37786;DHT22;23625;48.784;9.336;2023-04-15T10:21:21;14.20;64.50
37786;DHT22;23625;48.784;9.336;2023-04-15T10:23:48;14.40;65.50
37786;DHT22;23625;48.784;9.336;2023-04-15T10:29:18;14.50;63.30
37786;DHT22;23625;48.784;9.336;2023-04-15T10:31:45;14.10;65.50
37786;DHT22;23625;48.784;9.336;2023-04-15T10:34:11;14.20;64.30
37786;DHT22;23625;48.784;9.336;2023-04-15T10:36:37;14.50;63.90
37786;DHT22;23625;48.784;9.336;2023-04-15T10:42:18;14.70;60.40
37786;DHT22;23625;48.784;9.336;2023-04-15T10:44:51;14.90;60.60
37786;DHT22;23625;48.784;9.336;2023-04-15T10:47:21;15.10;61.30
37786;DHT22;23625;48.784;9.336;2023-04-15T10:49:54;15.00;59.70
37786;DHT22;23625;48.784;9.336;2023-04-15T10:52:23;14.90;59.30
37786;DHT22;23625;48.784;9.336;2023-04-15T10:57:38;14.20;62.00
37786;DHT22;23625;48.784;9.336;2023-04-15T11:02:45;14.70;62.30
37786;DHT22;23625;48.784;9.336;2023-04-15T11:05:16;15.00;61.50
37786;DHT22;23625;48.784;9.336;2023-04-15T11:07:50;14.60;60.40
37786;DHT22;23625;48.784;9.336;2023-04-15T11:12:45;14.50;62.40
37786;DHT22;23625;48.784;9.336;2023-04-15T11:17:52;14.80;62.70
37786;DHT22;23625;48.784;9.336;2023-04-15T11:20:17;14.70;61.20
37786;DHT22;23625;48.784;9.336;2023-04-15T11:22:50;14.80;62.60
37786;DHT22;23625;48.784;9.336;2023-04-15T11:25:22;15.00;61.00
37786;DHT22;23625;48.784;9.336;2023-04-15T11:27:47;15.20;59.60
37786;DHT22;23625;48.784;9.336;2023-04-15T11:30:25;15.30;58.10
37786;DHT22;23625;48.784;9.336;2023-04-15T11:32:53;15.40;58.00
37786;DHT22;23625;48.784;9.336;2023-04-15T11:35:19;15.30;57.50
37786;DHT22;23625;48.784;9.336;2023-04-15T11:37:45;15.30;58.20
37786;DHT22;23625;48.784;9.336;2023-04-15T11:40:11;15.30;58.30
37786;DHT22;23625;48.784;9.336;2023-04-15T11:42:38;15.20;57.10
37786;DHT22;23625;48.784;9.336;2023-04-15T11:45:14;14.80;56.90
37786;DHT22;23625;48.784;9.336;2023-04-15T11:47:43;14.60;58.30
37786;DHT22;23625;48.784;9.336;2023-04-15T11:50:19;14.60;59.40
37786;DHT22;23625;48.784;9.336;2023-04-15T11:52:58;14.30;59.70
37786;DHT22;23625;48.784;9.336;2023-04-15T11:55:24;14.20;64.10
37786;DHT22;23625;48.784;9.336;2023-04-15T12:00:33;14.20;62.10
37786;DHT22;23625;48.784;9.336;2023-04-15T12:03:12;14.10;63.20
37786;DHT22;23625;48.784;9.336;2023-04-15T12:06:13;14.20;64.00
37786;DHT22;23625;48.784;9.336;2023-04-15T12:11:44;14.10;64.50
37786;DHT22;23625;48.784;9.336;2023-04-15T12:14:24;13.80;64.90
37786;DHT22;23625;48.784;9.336;2023-04-15T12:17:01;13.70;65.90
37786;DHT22;23625;48.784;9.336;2023-04-15T12:22:05;13.60;61.20
37786;DHT22;23625;48.784;9.336;2023-04-15T12:24:35;13.60;61.80
37786;DHT22;23625;48.784;9.336;2023-04-15T12:27:06;13.70;61.30
37786;DHT22;23625;48.784;9.336;2023-04-15T12:29:33;13.70;61.50
37786;DHT22;23625;48.784;9.336;2023-04-15T12:32:07;13.60;62.20
37786;DHT22;23625;48.784;9.336;2023-04-15T12:34:53;13.60;63.50
37786;DHT22;23625;48.784;9.336;2023-04-15T12:37:19;13.50;63.20
37786;DHT22;23625;48.784;9.336;2023-04-15T12:39:47;13.40;63.00
37786;DHT22;23625;48.784;9.336;2023-04-15T12:42:13;13.20;66.00
37786;DHT22;23625;48.784;9.336;2023-04-15T12:44:40;12.90;70.10
37786;DHT22;23625;48.784;9.336;2023-04-15T12:47:07;12.50;73.30
37786;DHT22;23625;48.784;9.336;2023-04-15T12:49:33;12.30;77.70
37786;DHT22;23625;48.784;9.336;2023-04-15T12:52:00;12.10;86.20
37786;DHT22;23625;48.784;9.336;2023-04-15T12:54:26;12.00;91.90
37786;DHT22;23625;48.784;9.336;2023-04-15T12:56:52;11.60;96.70
37786;DHT22;23625;48.784;9.336;2023-04-15T12:59:19;11.20;98.50
37786;DHT22;23625;48.784;9.336;2023-04-15T13:01:46;11.00;95.80
37786;DHT22;23625;48.784;9.336;2023-04-15T13:04:13;10.90;98.00
37786;DHT22;23625;48.784;9.336;2023-04-15T13:06:38;10.90;99.40
37786;DHT22;23625;48.784;9.336;2023-04-15T13:09:04;10.80;99.90
37786;DHT22;23625;48.784;9.336;2023-04-15T13:11:31;10.80;99.90
37786;DHT22;23625;48.784;9.336;2023-04-15T13:13:59;10.80;99.90
37786;DHT22;23625;48.784;9.336;2023-04-15T13:16:25;10.90;99.90
37786;DHT22;23625;48.784;9.336;2023-04-15T13:18:50;10.90;99.90
37786;DHT22;23625;48.784;9.336;2023-04-15T13:21:17;11.00;99.90
37786;DHT22;23625;48.784;9.336;2023-04-15T13:23:42;11.00;99.90
37786;DHT22;23625;48.784;9.336;2023-04-15T13:26:08;11.20;99.90
37786;DHT22;23625;48.784;9.336;2023-04-15T13:28:34;11.30;99.90
37786;DHT22;23625;48.784;9.336;2023-04-15T13:30:59;11.30;99.70
37786;DHT22;23625;48.784;9.336;2023-04-15T13:33:26;11.50;97.60
37786;DHT22;23625;48.784;9.336;2023-04-15T13:35:51;11.60;94.50
37786;DHT22;23625;48.784;9.336;2023-04-15T13:38:17;11.70;97.30
37786;DHT22;23625;48.784;9.336;2023-04-15T13:40:42;11.80;99.10
37786;DHT22;23625;48.784;9.336;2023-04-15T13:43:08;11.90;90.50
37786;DHT22;23625;48.784;9.336;2023-04-15T13:45:34;12.10;76.00
37786;DHT22;23625;48.784;9.336;2023-04-15T13:48:00;12.20;75.00
37786;DHT22;23625;48.784;9.336;2023-04-15T13:50:26;12.20;69.60
37786;DHT22;23625;48.784;9.336;2023-04-15T13:52:52;12.40;66.70
37786;DHT22;23625;48.784;9.336;2023-04-15T13:55:18;12.40;67.20
37786;DHT22;23625;48.784;9.336;2023-04-15T13:57:44;12.40;66.60
37786;DHT22;23625;48.784;9.336;2023-04-15T14:00:10;12.40;62.80
37786;DHT22;23625;48.784;9.336;2023-04-15T14:02:36;12.40;59.40
37786;DHT22;23625;48.784;9.336;2023-04-15T14:05:01;12.30;63.20
37786;DHT22;23625;48.784;9.336;2023-04-15T14:07:28;12.30;61.60
37786;DHT22;23625;48.784;9.336;2023-04-15T14:09:55;12.30;62.60
37786;DHT22;23625;48.784;9.336;2023-04-15T14:12:21;12.40;59.70
37786;DHT22;23625;48.784;9.336;2023-04-15T14:14:46;12.30;60.40
37786;DHT22;23625;48.784;9.336;2023-04-15T14:17:12;12.40;60.70
37786;DHT22;23625;48.784;9.336;2023-04-15T14:19:38;12.30;60.40
37786;DHT22;23625;48.784;9.336;2023-04-15T14:22:04;12.40;59.50
37786;DHT22;23625;48.784;9.336;2023-04-15T14:24:29;12.40;58.70
37786;DHT22;23625;48.784;9.336;2023-04-15T14:26:55;12.30;59.10
37786;DHT22;23625;48.784;9.336;2023-04-15T14:29:22;12.30;58.30
37786;DHT22;23625;48.784;9.336;2023-04-15T14:31:47;12.30;58.90
37786;DHT22;23625;48.784;9.336;2023-04-15T14:34:14;12.20;59.00
37786;DHT22;23625;48.784;9.336;2023-04-15T14:36:40;12.20;58.60
37786;DHT22;23625;48.784;9.336;2023-04-15T14:39:06;12.20;58.90
37786;DHT22;23625;48.784;9.336;2023-04-15T14:41:32;12.20;57.80
37786;DHT22;23625;48.784;9.336;2023-04-15T14:43:58;12.10;58.10
37786;DHT22;23625;48.784;9.336;2023-04-15T14:46:24;12.00;58.40
37786;DHT22;23625;48.784;9.336;2023-04-15T14:48:50;12.00;59.20
37786;DHT22;23625;48.784;9.336;2023-04-15T14:51:16;11.80;59.50
37786;DHT22;23625;48.784;9.336;2023-04-15T14:53:41;11.70;60.30
37786;DHT22;23625;48.784;9.336;2023-04-15T14:56:08;11.80;60.70
37786;DHT22;23625;48.784;9.336;2023-04-15T14:58:34;11.80;61.80
37786;DHT22;23625;48.784;9.336;2023-04-15T15:00:59;11.80;62.60
37786;DHT22;23625;48.784;9.336;2023-04-15T15:03:27;11.70;63.70
37786;DHT22;23625;48.784;9.336;2023-04-15T15:05:52;11.60;63.50
37786;DHT22;23625;48.784;9.336;2023-04-15T15:08:18;11.70;63.60
37786;DHT22;23625;48.784;9.336;2023-04-15T15:10:44;11.70;63.70
37786;DHT22;23625;48.784;9.336;2023-04-15T15:13:10;11.60;65.10
37786;DHT22;23625;48.784;9.336;2023-04-15T15:15:36;11.60;65.70
37786;DHT22;23625;48.784;9.336;2023-04-15T15:18:02;11.60;64.60
37786;DHT22;23625;48.784;9.336;2023-04-15T15:20:29;11.60;64.50
37786;DHT22;23625;48.784;9.336;2023-04-15T15:22:55;11.50;65.10
37786;DHT22;23625;48.784;9.336;2023-04-15T15:25:20;11.40;66.90
37786;DHT22;23625;48.784;9.336;2023-04-15T15:27:46;11.20;68.70
37786;DHT22;23625;48.784;9.336;2023-04-15T15:30:12;11.20;70.20
37786;DHT22;23625;48.784;9.336;2023-04-15T15:32:41;11.20;71.80
37786;DHT22;23625;48.784;9.336;2023-04-15T15:35:07;11.10;72.90
37786;DHT22;23625;48.784;9.336;2023-04-15T15:37:34;11.00;75.60
37786;DHT22;23625;48.784;9.336;2023-04-15T15:40:00;11.10;73.80
37786;DHT22;23625;48.784;9.336;2023-04-15T15:42:26;11.00;77.60
37786;DHT22;23625;48.784;9.336;2023-04-15T15:44:55;10.90;80.30
37786;DHT22;23625;48.784;9.336;2023-04-15T15:47:21;11.00;80.10
37786;DHT22;23625;48.784;9.336;2023-04-15T15:49:47;10.90;83.30
37786;DHT22;23625;48.784;9.336;2023-04-15T15:52:12;10.80;88.40
37786;DHT22;23625;48.784;9.336;2023-04-15T15:54:41;10.70;87.90
37786;DHT22;23625;48.784;9.336;2023-04-15T15:57:07;10.90;89.40
37786;DHT22;23625;48.784;9.336;2023-04-15T15:59:32;10.80;88.40
37786;DHT22;23625;48.784;9.336;2023-04-15T16:01:59;10.70;89.90
37786;DHT22;23625;48.784;9.336;2023-04-15T16:04:25;10.80;88.80